sensor_id;sensor_type;location;lat;lon;timestamp;temperature;humidity
2100;DHT22;1055;48.854;9.302;2022-07-22T00:00:57;20.40;99.90
2100;DHT22;1055;48.854;9.302;2022-07-22T00:03:23;20.40;99.90
2100;DHT22;1055;48.854;9.302;2022-07-22T00:05:48;20.30;99.90
2100;DHT22;1055;48.854;9.302;2022-07-22T00:08:14;20.60;99.90
2100;DHT22;1055;48.854;9.302;2022-07-22T00:10:40;20.50;99.90
2100;DHT22;1055;48.854;9.302;2022-07-22T00:13:06;20.40;99.90
2100;DHT22;1055;48.854;9.302;2022-07-22T00:15:31;20.40;99.90
2100;DHT22;1055;48.854;9.302;2022-07-22T00:17:57;20.60;99.90
2100;DHT22;1055;48.854;9.302;2022-07-22T00:20:23;20.50;99.90
2100;DHT22;1055;48.854;9.302;2022-07-22T00:22:48;20.40;99.90
2100;DHT22;1055;48.854;9.302;2022-07-22T00:25:14;20.30;99.90
2100;DHT22;1055;48.854;9.302;2022-07-22T00:27:40;20.20;99.90
2100;DHT22;1055;48.854;9.302;2022-07-22T00:30:06;20.20;99.90
2100;DHT22;1055;48.854;9.302;2022-07-22T00:32:32;20.30;99.90
2100;DHT22;1055;48.854;9.302;2022-07-22T00:34:57;20.50;99.90
2100;DHT22;1055;48.854;9.302;2022-07-22T00:37:23;20.60;99.90
2100;DHT22;1055;48.854;9.302;2022-07-22T00:39:48;20.40;99.90
2100;DHT22;1055;48.854;9.302;2022-07-22T00:42:14;20.50;99.90
2100;DHT22;1055;48.854;9.302;2022-07-22T00:44:40;20.50;99.90
2100;DHT22;1055;48.854;9.302;2022-07-22T00:47:06;20.50;99.90
2100;DHT22;1055;48.854;9.302;2022-07-22T00:49:31;20.50;99.90
2100;DHT22;1055;48.854;9.302;2022-07-22T00:51:57;20.60;99.90
2100;DHT22;1055;48.854;9.302;2022-07-22T00:54:23;20.70;99.90
2100;DHT22;1055;48.854;9.302;2022-07-22T00:56:49;20.60;99.90
2100;DHT22;1055;48.854;9.302;2022-07-22T00:59:15;20.60;99.90
2100;DHT22;1055;48.854;9.302;2022-07-22T01:01:41;20.70;99.90
2100;DHT22;1055;48.854;9.302;2022-07-22T01:04:07;20.70;99.90
2100;DHT22;1055;48.854;9.302;2022-07-22T01:06:32;20.50;99.90
2100;DHT22;1055;48.854;9.302;2022-07-22T01:08:58;20.30;99.90
2100;DHT22;1055;48.854;9.302;2022-07-22T01:11:24;19.70;99.90
2100;DHT22;1055;48.854;9.302;2022-07-22T01:13:51;19.80;99.90
2100;DHT22;1055;48.854;9.302;2022-07-22T01:16:18;19.70;99.90
2100;DHT22;1055;48.854;9.302;2022-07-22T01:18:45;19.40;99.90
2100;DHT22;1055;48.854;9.302;2022-07-22T01:21:12;19.50;99.90
2100;DHT22;1055;48.854;9.302;2022-07-22T01:23:39;19.70;99.90
2100;DHT22;1055;48.854;9.302;2022-07-22T01:26:05;19.80;99.90
2100;DHT22;1055;48.854;9.302;2022-07-22T01:28:31;19.70;99.90
2100;DHT22;1055;48.854;9.302;2022-07-22T01:30:57;19.50;99.90
2100;DHT22;1055;48.854;9.302;2022-07-22T01:33:23;19.70;99.90
2100;DHT22;1055;48.854;9.302;2022-07-22T01:35:50;19.50;99.90
2100;DHT22;1055;48.854;9.302;2022-07-22T01:38:16;19.20;99.90
2100;DHT22;1055;48.854;9.302;2022-07-22T01:40:43;18.90;99.90
2100;DHT22;1055;48.854;9.302;2022-07-22T01:43:09;19.00;99.90
2100;DHT22;1055;48.854;9.302;2022-07-22T01:45:34;19.30;99.90
2100;DHT22;1055;48.854;9.302;2022-07-22T01:48:01;19.40;99.90
2100;DHT22;1055;48.854;9.302;2022-07-22T01:50:27;19.10;99.90
2100;DHT22;1055;48.854;9.302;2022-07-22T01:52:53;18.80;99.90
2100;DHT22;1055;48.854;9.302;2022-07-22T01:55:19;18.80;99.90
2100;DHT22;1055;48.854;9.302;2022-07-22T01:57:44;18.80;99.90
2100;DHT22;1055;48.854;9.302;2022-07-22T02:00:10;18.90;99.90
2100;DHT22;1055;48.854;9.302;2022-07-22T02:02:37;19.20;99.90
2100;DHT22;1055;48.854;9.302;2022-07-22T02:05:05;19.40;99.90
2100;DHT22;1055;48.854;9.302;2022-07-22T02:07:31;19.40;99.90
2100;DHT22;1055;48.854;9.302;2022-07-22T02:09:56;19.20;99.90
2100;DHT22;1055;48.854;9.302;2022-07-22T02:12:22;19.00;99.90
2100;DHT22;1055;48.854;9.302;2022-07-22T02:14:48;19.00;99.90
2100;DHT22;1055;48.854;9.302;2022-07-22T02:17:14;19.20;99.90
2100;DHT22;1055;48.854;9.302;2022-07-22T02:19:40;19.20;99.90
2100;DHT22;1055;48.854;9.302;2022-07-22T02:22:06;19.10;99.90
2100;DHT22;1055;48.854;9.302;2022-07-22T02:24:32;19.30;99.90
2100;DHT22;1055;48.854;9.302;2022-07-22T02:26:58;19.10;99.90
2100;DHT22;1055;48.854;9.302;2022-07-22T02:29:24;19.30;99.90
2100;DHT22;1055;48.854;9.302;2022-07-22T02:31:50;19.10;99.90
2100;DHT22;1055;48.854;9.302;2022-07-22T02:34:16;18.90;99.90
2100;DHT22;1055;48.854;9.302;2022-07-22T02:36:42;18.90;99.90
2100;DHT22;1055;48.854;9.302;2022-07-22T02:39:08;18.60;99.90
2100;DHT22;1055;48.854;9.302;2022-07-22T02:41:33;18.70;99.90
2100;DHT22;1055;48.854;9.302;2022-07-22T02:43:59;18.80;99.90
2100;DHT22;1055;48.854;9.302;2022-07-22T02:46:25;18.70;99.90
2100;DHT22;1055;48.854;9.302;2022-07-22T02:48:53;18.70;99.90
2100;DHT22;1055;48.854;9.302;2022-07-22T02:51:20;18.70;99.90
2100;DHT22;1055;48.854;9.302;2022-07-22T02:53:46;18.70;99.90
2100;DHT22;1055;48.854;9.302;2022-07-22T02:56:11;18.70;99.90
2100;DHT22;1055;48.854;9.302;2022-07-22T02:58:37;18.60;99.90
2100;DHT22;1055;48.854;9.302;2022-07-22T03:01:03;18.80;99.90
2100;DHT22;1055;48.854;9.302;2022-07-22T03:03:28;18.80;99.90
2100;DHT22;1055;48.854;9.302;2022-07-22T03:05:54;18.60;99.90
2100;DHT22;1055;48.854;9.302;2022-07-22T03:08:20;18.70;99.90
2100;DHT22;1055;48.854;9.302;2022-07-22T03:10:45;18.70;99.90
2100;DHT22;1055;48.854;9.302;2022-07-22T03:13:11;18.90;99.90
2100;DHT22;1055;48.854;9.302;2022-07-22T03:15:36;19.10;99.90
2100;DHT22;1055;48.854;9.302;2022-07-22T03:18:02;19.00;99.90
2100;DHT22;1055;48.854;9.302;2022-07-22T03:20:28;18.40;99.90
2100;DHT22;1055;48.854;9.302;2022-07-22T03:22:54;18.30;99.90
2100;DHT22;1055;48.854;9.302;2022-07-22T03:25:19;18.60;99.90
2100;DHT22;1055;48.854;9.302;2022-07-22T03:27:45;18.70;99.90
2100;DHT22;1055;48.854;9.302;2022-07-22T03:30:12;18.70;99.90
2100;DHT22;1055;48.854;9.302;2022-07-22T03:32:38;18.90;99.90
2100;DHT22;1055;48.854;9.302;2022-07-22T03:35:04;19.00;99.90
2100;DHT22;1055;48.854;9.302;2022-07-22T03:37:30;18.90;99.90
2100;DHT22;1055;48.854;9.302;2022-07-22T03:39:56;18.80;99.90
2100;DHT22;1055;48.854;9.302;2022-07-22T03:42:21;18.40;99.90
2100;DHT22;1055;48.854;9.302;2022-07-22T03:44:47;18.30;99.90
2100;DHT22;1055;48.854;9.302;2022-07-22T03:47:21;18.60;99.90
2100;DHT22;1055;48.854;9.302;2022-07-22T03:49:48;18.50;99.90
2100;DHT22;1055;48.854;9.302;2022-07-22T03:52:13;18.70;99.90
2100;DHT22;1055;48.854;9.302;2022-07-22T03:54:40;18.80;99.90
2100;DHT22;1055;48.854;9.302;2022-07-22T03:57:07;18.70;99.90
2100;DHT22;1055;48.854;9.302;2022-07-22T03:59:33;18.20;99.90
2100;DHT22;1055;48.854;9.302;2022-07-22T04:01:59;18.50;99.90
2100;DHT22;1055;48.854;9.302;2022-07-22T04:04:25;18.30;99.90
2100;DHT22;1055;48.854;9.302;2022-07-22T04:06:51;18.30;99.90
2100;DHT22;1055;48.854;9.302;2022-07-22T04:09:17;18.00;99.90
2100;DHT22;1055;48.854;9.302;2022-07-22T04:11:43;18.00;99.90
2100;DHT22;1055;48.854;9.302;2022-07-22T04:14:08;17.90;99.90
2100;DHT22;1055;48.854;9.302;2022-07-22T04:16:34;18.00;99.90
2100;DHT22;1055;48.854;9.302;2022-07-22T04:19:01;17.90;99.90
2100;DHT22;1055;48.854;9.302;2022-07-22T04:21:26;17.70;99.90
2100;DHT22;1055;48.854;9.302;2022-07-22T04:23:53;17.50;99.90
2100;DHT22;1055;48.854;9.302;2022-07-22T04:26:18;17.50;99.90
2100;DHT22;1055;48.854;9.302;2022-07-22T04:28:44;17.40;99.90
2100;DHT22;1055;48.854;9.302;2022-07-22T04:31:09;17.30;99.90
2100;DHT22;1055;48.854;9.302;2022-07-22T04:33:35;17.40;99.90
2100;DHT22;1055;48.854;9.302;2022-07-22T04:36:01;17.60;99.90
2100;DHT22;1055;48.854;9.302;2022-07-22T04:38:26;17.70;99.90
2100;DHT22;1055;48.854;9.302;2022-07-22T04:40:52;17.60;99.90
2100;DHT22;1055;48.854;9.302;2022-07-22T04:43:18;17.60;99.90
2100;DHT22;1055;48.854;9.302;2022-07-22T04:45:44;17.50;99.90
2100;DHT22;1055;48.854;9.302;2022-07-22T04:48:10;17.30;99.90
2100;DHT22;1055;48.854;9.302;2022-07-22T04:50:36;17.30;99.90
2100;DHT22;1055;48.854;9.302;2022-07-22T04:53:02;17.40;99.90
2100;DHT22;1055;48.854;9.302;2022-07-22T04:55:28;17.60;99.90
2100;DHT22;1055;48.854;9.302;2022-07-22T04:57:55;17.70;99.90
2100;DHT22;1055;48.854;9.302;2022-07-22T05:00:22;17.80;99.90
2100;DHT22;1055;48.854;9.302;2022-07-22T05:02:48;17.80;99.90
2100;DHT22;1055;48.854;9.302;2022-07-22T05:05:15;17.90;99.90
2100;DHT22;1055;48.854;9.302;2022-07-22T05:07:41;18.10;99.90
2100;DHT22;1055;48.854;9.302;2022-07-22T05:10:08;18.10;99.90
2100;DHT22;1055;48.854;9.302;2022-07-22T05:12:35;18.00;99.90
2100;DHT22;1055;48.854;9.302;2022-07-22T05:15:02;18.20;99.90
2100;DHT22;1055;48.854;9.302;2022-07-22T05:17:28;18.40;99.90
2100;DHT22;1055;48.854;9.302;2022-07-22T05:19:53;18.40;99.90
2100;DHT22;1055;48.854;9.302;2022-07-22T05:22:19;18.30;99.90
2100;DHT22;1055;48.854;9.302;2022-07-22T05:24:45;18.30;99.90
2100;DHT22;1055;48.854;9.302;2022-07-22T05:27:11;18.20;99.90
2100;DHT22;1055;48.854;9.302;2022-07-22T05:29:37;18.20;99.90
2100;DHT22;1055;48.854;9.302;2022-07-22T05:32:03;17.90;99.90
2100;DHT22;1055;48.854;9.302;2022-07-22T05:34:28;18.10;99.90
2100;DHT22;1055;48.854;9.302;2022-07-22T05:36:54;18.10;99.90
2100;DHT22;1055;48.854;9.302;2022-07-22T05:39:20;18.30;99.90
2100;DHT22;1055;48.854;9.302;2022-07-22T05:41:45;18.60;99.90
2100;DHT22;1055;48.854;9.302;2022-07-22T05:44:11;18.60;99.90
2100;DHT22;1055;48.854;9.302;2022-07-22T05:46:37;18.50;99.90
2100;DHT22;1055;48.854;9.302;2022-07-22T05:49:03;18.60;99.90
2100;DHT22;1055;48.854;9.302;2022-07-22T05:51:29;18.70;99.90
2100;DHT22;1055;48.854;9.302;2022-07-22T05:53:55;18.80;99.90
2100;DHT22;1055;48.854;9.302;2022-07-22T05:56:21;19.10;99.90
2100;DHT22;1055;48.854;9.302;2022-07-22T05:58:47;19.30;99.90
2100;DHT22;1055;48.854;9.302;2022-07-22T06:01:12;19.50;99.90
2100;DHT22;1055;48.854;9.302;2022-07-22T06:03:39;19.70;99.90
2100;DHT22;1055;48.854;9.302;2022-07-22T06:06:05;19.60;99.90
2100;DHT22;1055;48.854;9.302;2022-07-22T06:08:34;19.70;99.90
2100;DHT22;1055;48.854;9.302;2022-07-22T06:11:00;19.90;99.90
2100;DHT22;1055;48.854;9.302;2022-07-22T06:13:26;20.00;99.90
2100;DHT22;1055;48.854;9.302;2022-07-22T06:15:52;20.00;99.90
2100;DHT22;1055;48.854;9.302;2022-07-22T06:18:17;20.10;99.90
2100;DHT22;1055;48.854;9.302;2022-07-22T06:20:43;20.20;99.90
2100;DHT22;1055;48.854;9.302;2022-07-22T06:23:09;20.00;99.90
2100;DHT22;1055;48.854;9.302;2022-07-22T06:25:35;20.10;99.90
2100;DHT22;1055;48.854;9.302;2022-07-22T06:28:01;20.00;99.90
2100;DHT22;1055;48.854;9.302;2022-07-22T06:30:28;19.90;99.90
2100;DHT22;1055;48.854;9.302;2022-07-22T06:32:53;20.00;99.90
2100;DHT22;1055;48.854;9.302;2022-07-22T06:35:19;20.10;99.90
2100;DHT22;1055;48.854;9.302;2022-07-22T06:37:45;20.20;99.90
2100;DHT22;1055;48.854;9.302;2022-07-22T06:40:11;20.30;99.90
2100;DHT22;1055;48.854;9.302;2022-07-22T06:42:37;20.40;99.90
2100;DHT22;1055;48.854;9.302;2022-07-22T06:45:04;20.50;99.90
2100;DHT22;1055;48.854;9.302;2022-07-22T06:47:29;20.20;99.90
2100;DHT22;1055;48.854;9.302;2022-07-22T06:49:57;20.30;99.90
2100;DHT22;1055;48.854;9.302;2022-07-22T06:52:23;20.20;99.90
2100;DHT22;1055;48.854;9.302;2022-07-22T06:54:49;20.30;99.90
2100;DHT22;1055;48.854;9.302;2022-07-22T06:57:15;20.30;99.90
2100;DHT22;1055;48.854;9.302;2022-07-22T06:59:41;20.30;99.90
2100;DHT22;1055;48.854;9.302;2022-07-22T07:02:07;20.40;99.90
2100;DHT22;1055;48.854;9.302;2022-07-22T07:04:32;20.70;99.90
2100;DHT22;1055;48.854;9.302;2022-07-22T07:06:58;20.60;99.90
2100;DHT22;1055;48.854;9.302;2022-07-22T07:09:24;20.90;99.90
2100;DHT22;1055;48.854;9.302;2022-07-22T07:11:49;20.90;99.90
2100;DHT22;1055;48.854;9.302;2022-07-22T07:14:15;21.00;99.90
2100;DHT22;1055;48.854;9.302;2022-07-22T07:16:41;20.90;99.90
2100;DHT22;1055;48.854;9.302;2022-07-22T07:19:06;21.10;99.90
2100;DHT22;1055;48.854;9.302;2022-07-22T07:21:32;21.20;99.90
2100;DHT22;1055;48.854;9.302;2022-07-22T07:23:58;21.10;99.90
2100;DHT22;1055;48.854;9.302;2022-07-22T07:26:24;21.30;99.90
2100;DHT22;1055;48.854;9.302;2022-07-22T07:28:50;21.20;99.90
2100;DHT22;1055;48.854;9.302;2022-07-22T07:31:17;21.40;99.90
2100;DHT22;1055;48.854;9.302;2022-07-22T07:33:44;21.20;99.90
2100;DHT22;1055;48.854;9.302;2022-07-22T07:36:10;20.90;99.90
2100;DHT22;1055;48.854;9.302;2022-07-22T07:38:35;21.10;99.90
2100;DHT22;1055;48.854;9.302;2022-07-22T07:41:01;21.30;99.90
2100;DHT22;1055;48.854;9.302;2022-07-22T07:43:28;21.30;99.90
2100;DHT22;1055;48.854;9.302;2022-07-22T07:45:54;21.60;99.90
2100;DHT22;1055;48.854;9.302;2022-07-22T07:48:19;21.60;99.90
2100;DHT22;1055;48.854;9.302;2022-07-22T07:50:45;21.70;99.90
2100;DHT22;1055;48.854;9.302;2022-07-22T07:53:17;21.90;99.90
2100;DHT22;1055;48.854;9.302;2022-07-22T07:55:43;22.00;99.90
2100;DHT22;1055;48.854;9.302;2022-07-22T07:58:09;21.70;99.90
2100;DHT22;1055;48.854;9.302;2022-07-22T08:00:37;21.90;99.90
2100;DHT22;1055;48.854;9.302;2022-07-22T08:03:05;22.00;99.90
2100;DHT22;1055;48.854;9.302;2022-07-22T08:05:30;22.10;99.90
2100;DHT22;1055;48.854;9.302;2022-07-22T08:07:56;22.20;99.90
2100;DHT22;1055;48.854;9.302;2022-07-22T08:10:22;22.30;99.90
2100;DHT22;1055;48.854;9.302;2022-07-22T08:12:48;22.40;99.90
2100;DHT22;1055;48.854;9.302;2022-07-22T08:15:16;22.30;99.90
2100;DHT22;1055;48.854;9.302;2022-07-22T08:17:41;22.40;99.90
2100;DHT22;1055;48.854;9.302;2022-07-22T08:20:08;22.60;99.90
2100;DHT22;1055;48.854;9.302;2022-07-22T08:22:35;22.60;99.90
2100;DHT22;1055;48.854;9.302;2022-07-22T08:25:01;22.70;99.90
2100;DHT22;1055;48.854;9.302;2022-07-22T08:27:26;22.80;99.90
2100;DHT22;1055;48.854;9.302;2022-07-22T08:29:52;23.00;99.90
2100;DHT22;1055;48.854;9.302;2022-07-22T08:32:18;23.20;99.90
2100;DHT22;1055;48.854;9.302;2022-07-22T08:34:43;23.30;99.90
2100;DHT22;1055;48.854;9.302;2022-07-22T08:37:09;23.40;99.90
2100;DHT22;1055;48.854;9.302;2022-07-22T08:39:35;23.50;99.90
2100;DHT22;1055;48.854;9.302;2022-07-22T08:42:02;23.70;99.90
2100;DHT22;1055;48.854;9.302;2022-07-22T08:44:30;23.70;99.90
2100;DHT22;1055;48.854;9.302;2022-07-22T08:46:57;23.50;99.90
2100;DHT22;1055;48.854;9.302;2022-07-22T08:49:23;23.60;99.90
2100;DHT22;1055;48.854;9.302;2022-07-22T08:51:49;23.80;99.90
2100;DHT22;1055;48.854;9.302;2022-07-22T08:54:16;23.80;99.90
2100;DHT22;1055;48.854;9.302;2022-07-22T08:56:46;23.70;99.90
2100;DHT22;1055;48.854;9.302;2022-07-22T08:59:12;23.70;99.90
2100;DHT22;1055;48.854;9.302;2022-07-22T09:02:06;23.90;99.90
2100;DHT22;1055;48.854;9.302;2022-07-22T09:04:32;24.00;99.90
2100;DHT22;1055;48.854;9.302;2022-07-22T09:07:29;24.20;99.90
2100;DHT22;1055;48.854;9.302;2022-07-22T09:09:57;24.40;99.90
2100;DHT22;1055;48.854;9.302;2022-07-22T09:12:24;24.40;99.90
2100;DHT22;1055;48.854;9.302;2022-07-22T09:14:55;24.40;99.90
2100;DHT22;1055;48.854;9.302;2022-07-22T09:17:28;24.50;99.90
2100;DHT22;1055;48.854;9.302;2022-07-22T09:19:55;24.60;99.90
2100;DHT22;1055;48.854;9.302;2022-07-22T09:22:42;24.80;99.90
2100;DHT22;1055;48.854;9.302;2022-07-22T09:25:30;24.80;99.90
2100;DHT22;1055;48.854;9.302;2022-07-22T09:30:40;25.00;99.90
2100;DHT22;1055;48.854;9.302;2022-07-22T09:33:07;25.10;99.90
2100;DHT22;1055;48.854;9.302;2022-07-22T09:35:33;25.20;99.90
2100;DHT22;1055;48.854;9.302;2022-07-22T09:38:00;25.30;99.90
2100;DHT22;1055;48.854;9.302;2022-07-22T09:40:28;25.50;99.90
2100;DHT22;1055;48.854;9.302;2022-07-22T09:42:59;25.60;99.90
2100;DHT22;1055;48.854;9.302;2022-07-22T09:45:28;25.70;99.90
2100;DHT22;1055;48.854;9.302;2022-07-22T09:47:56;25.70;99.90
2100;DHT22;1055;48.854;9.302;2022-07-22T09:50:30;25.80;99.90
2100;DHT22;1055;48.854;9.302;2022-07-22T09:52:58;25.90;99.90
2100;DHT22;1055;48.854;9.302;2022-07-22T09:55:25;26.00;99.90
2100;DHT22;1055;48.854;9.302;2022-07-22T09:57:53;25.90;99.90
2100;DHT22;1055;48.854;9.302;2022-07-22T10:00:21;26.10;99.90
2100;DHT22;1055;48.854;9.302;2022-07-22T10:02:54;26.30;99.90
2100;DHT22;1055;48.854;9.302;2022-07-22T10:05:24;26.20;99.90
2100;DHT22;1055;48.854;9.302;2022-07-22T10:07:51;26.40;99.90
2100;DHT22;1055;48.854;9.302;2022-07-22T10:10:20;26.10;99.90
2100;DHT22;1055;48.854;9.302;2022-07-22T10:12:49;26.30;99.90
2100;DHT22;1055;48.854;9.302;2022-07-22T10:15:16;26.60;99.90
2100;DHT22;1055;48.854;9.302;2022-07-22T10:17:44;26.50;99.90
2100;DHT22;1055;48.854;9.302;2022-07-22T10:20:11;26.50;99.90
2100;DHT22;1055;48.854;9.302;2022-07-22T10:25:08;26.70;99.90
2100;DHT22;1055;48.854;9.302;2022-07-22T10:27:56;26.90;99.90
2100;DHT22;1055;48.854;9.302;2022-07-22T10:30:30;27.00;99.90
2100;DHT22;1055;48.854;9.302;2022-07-22T10:33:17;27.10;99.90
2100;DHT22;1055;48.854;9.302;2022-07-22T10:38:24;27.50;99.90
2100;DHT22;1055;48.854;9.302;2022-07-22T10:43:26;27.50;99.90
2100;DHT22;1055;48.854;9.302;2022-07-22T10:51:09;27.60;99.90
2100;DHT22;1055;48.854;9.302;2022-07-22T10:58:48;27.70;99.90
2100;DHT22;1055;48.854;9.302;2022-07-22T11:01:15;28.00;99.90
2100;DHT22;1055;48.854;9.302;2022-07-22T11:03:43;28.00;99.90
2100;DHT22;1055;48.854;9.302;2022-07-22T11:08:45;28.10;99.90
2100;DHT22;1055;48.854;9.302;2022-07-22T11:11:11;28.20;99.90
2100;DHT22;1055;48.854;9.302;2022-07-22T11:13:39;28.50;99.90
2100;DHT22;1055;48.854;9.302;2022-07-22T11:16:22;28.50;98.80
2100;DHT22;1055;48.854;9.302;2022-07-22T11:21:18;28.60;95.90
2100;DHT22;1055;48.854;9.302;2022-07-22T11:23:44;28.80;96.10
2100;DHT22;1055;48.854;9.302;2022-07-22T11:26:13;28.70;96.90
2100;DHT22;1055;48.854;9.302;2022-07-22T11:28:43;28.90;96.30
2100;DHT22;1055;48.854;9.302;2022-07-22T11:31:10;29.00;97.20
2100;DHT22;1055;48.854;9.302;2022-07-22T11:33:38;29.30;96.30
2100;DHT22;1055;48.854;9.302;2022-07-22T11:36:06;29.60;95.30
2100;DHT22;1055;48.854;9.302;2022-07-22T11:38:49;29.80;93.90
2100;DHT22;1055;48.854;9.302;2022-07-22T11:41:18;29.30;91.30
2100;DHT22;1055;48.854;9.302;2022-07-22T11:43:48;29.40;92.80
2100;DHT22;1055;48.854;9.302;2022-07-22T11:46:16;29.40;91.10
2100;DHT22;1055;48.854;9.302;2022-07-22T11:48:43;29.70;91.80
2100;DHT22;1055;48.854;9.302;2022-07-22T11:51:11;30.00;91.70
2100;DHT22;1055;48.854;9.302;2022-07-22T11:53:38;30.10;91.10
2100;DHT22;1055;48.854;9.302;2022-07-22T11:56:06;30.20;90.10
2100;DHT22;1055;48.854;9.302;2022-07-22T11:58:38;30.00;89.80
2100;DHT22;1055;48.854;9.302;2022-07-22T12:01:06;30.30;88.20
2100;DHT22;1055;48.854;9.302;2022-07-22T12:03:34;30.10;87.30
2100;DHT22;1055;48.854;9.302;2022-07-22T12:06:02;30.30;90.60
2100;DHT22;1055;48.854;9.302;2022-07-22T12:08:28;29.80;86.60
2100;DHT22;1055;48.854;9.302;2022-07-22T12:10:56;30.00;90.20
2100;DHT22;1055;48.854;9.302;2022-07-22T12:13:27;30.50;90.70
2100;DHT22;1055;48.854;9.302;2022-07-22T12:15:53;30.20;90.00
2100;DHT22;1055;48.854;9.302;2022-07-22T12:18:23;30.50;87.50
2100;DHT22;1055;48.854;9.302;2022-07-22T12:20:50;30.60;86.50
2100;DHT22;1055;48.854;9.302;2022-07-22T12:23:16;30.90;85.10
2100;DHT22;1055;48.854;9.302;2022-07-22T12:25:52;31.20;81.80
2100;DHT22;1055;48.854;9.302;2022-07-22T12:28:18;31.20;83.60
2100;DHT22;1055;48.854;9.302;2022-07-22T12:30:43;31.50;86.40
2100;DHT22;1055;48.854;9.302;2022-07-22T12:33:14;31.20;80.70
2100;DHT22;1055;48.854;9.302;2022-07-22T12:35:41;31.10;83.50
2100;DHT22;1055;48.854;9.302;2022-07-22T12:38:07;31.50;84.10
2100;DHT22;1055;48.854;9.302;2022-07-22T12:40:34;31.80;82.60
2100;DHT22;1055;48.854;9.302;2022-07-22T12:45:29;32.20;79.10
2100;DHT22;1055;48.854;9.302;2022-07-22T12:48:00;32.30;78.70
2100;DHT22;1055;48.854;9.302;2022-07-22T12:50:38;32.50;78.30
2100;DHT22;1055;48.854;9.302;2022-07-22T12:55:42;32.60;76.60
2100;DHT22;1055;48.854;9.302;2022-07-22T12:58:09;32.50;75.60
2100;DHT22;1055;48.854;9.302;2022-07-22T13:00:39;32.30;74.90
2100;DHT22;1055;48.854;9.302;2022-07-22T13:03:05;32.80;75.00
2100;DHT22;1055;48.854;9.302;2022-07-22T13:05:31;32.50;71.50
2100;DHT22;1055;48.854;9.302;2022-07-22T13:07:58;32.40;72.20
2100;DHT22;1055;48.854;9.302;2022-07-22T13:10:25;32.20;71.70
2100;DHT22;1055;48.854;9.302;2022-07-22T13:12:51;32.30;74.00
2100;DHT22;1055;48.854;9.302;2022-07-22T13:15:18;32.60;74.30
2100;DHT22;1055;48.854;9.302;2022-07-22T13:17:46;32.90;73.80
2100;DHT22;1055;48.854;9.302;2022-07-22T13:20:14;33.40;69.60
2100;DHT22;1055;48.854;9.302;2022-07-22T13:22:42;33.80;68.10
2100;DHT22;1055;48.854;9.302;2022-07-22T13:25:08;33.90;66.50
2100;DHT22;1055;48.854;9.302;2022-07-22T13:27:35;34.30;66.10
2100;DHT22;1055;48.854;9.302;2022-07-22T13:30:02;33.80;62.60
2100;DHT22;1055;48.854;9.302;2022-07-22T13:32:29;33.20;65.00
2100;DHT22;1055;48.854;9.302;2022-07-22T13:34:55;33.60;67.50
2100;DHT22;1055;48.854;9.302;2022-07-22T13:37:23;34.00;67.40
2100;DHT22;1055;48.854;9.302;2022-07-22T13:39:49;34.40;63.80
2100;DHT22;1055;48.854;9.302;2022-07-22T13:42:16;34.30;61.00
2100;DHT22;1055;48.854;9.302;2022-07-22T13:44:49;33.60;65.10
2100;DHT22;1055;48.854;9.302;2022-07-22T13:47:17;33.10;64.70
2100;DHT22;1055;48.854;9.302;2022-07-22T13:49:44;33.50;63.60
2100;DHT22;1055;48.854;9.302;2022-07-22T13:52:12;34.00;65.10
2100;DHT22;1055;48.854;9.302;2022-07-22T13:54:38;34.60;64.20
2100;DHT22;1055;48.854;9.302;2022-07-22T13:57:05;35.10;61.40
2100;DHT22;1055;48.854;9.302;2022-07-22T13:59:31;34.60;61.00
2100;DHT22;1055;48.854;9.302;2022-07-22T14:01:58;33.40;60.00
2100;DHT22;1055;48.854;9.302;2022-07-22T14:04:25;32.60;62.30
2100;DHT22;1055;48.854;9.302;2022-07-22T14:06:51;32.00;64.40
2100;DHT22;1055;48.854;9.302;2022-07-22T14:09:18;32.90;66.20
2100;DHT22;1055;48.854;9.302;2022-07-22T14:11:43;33.20;65.80
2100;DHT22;1055;48.854;9.302;2022-07-22T14:14:09;33.90;65.30
2100;DHT22;1055;48.854;9.302;2022-07-22T14:16:36;34.20;62.90
2100;DHT22;1055;48.854;9.302;2022-07-22T14:19:05;34.90;60.50
2100;DHT22;1055;48.854;9.302;2022-07-22T14:21:33;35.30;59.80
2100;DHT22;1055;48.854;9.302;2022-07-22T14:23:58;35.50;60.00
2100;DHT22;1055;48.854;9.302;2022-07-22T14:26:24;35.90;59.20
2100;DHT22;1055;48.854;9.302;2022-07-22T14:28:50;36.30;59.10
2100;DHT22;1055;48.854;9.302;2022-07-22T14:31:16;36.30;57.90
2100;DHT22;1055;48.854;9.302;2022-07-22T14:33:42;35.40;56.60
2100;DHT22;1055;48.854;9.302;2022-07-22T14:36:07;36.20;56.60
2100;DHT22;1055;48.854;9.302;2022-07-22T14:38:33;36.60;56.50
2100;DHT22;1055;48.854;9.302;2022-07-22T14:40:59;36.10;55.90
2100;DHT22;1055;48.854;9.302;2022-07-22T14:43:25;36.30;57.70
2100;DHT22;1055;48.854;9.302;2022-07-22T14:45:52;36.60;55.90
2100;DHT22;1055;48.854;9.302;2022-07-22T14:48:18;36.10;55.30
2100;DHT22;1055;48.854;9.302;2022-07-22T14:51:04;36.40;56.30
2100;DHT22;1055;48.854;9.302;2022-07-22T14:53:30;35.90;56.10
2100;DHT22;1055;48.854;9.302;2022-07-22T14:55:56;36.00;56.20
2100;DHT22;1055;48.854;9.302;2022-07-22T14:58:22;36.80;56.00
2100;DHT22;1055;48.854;9.302;2022-07-22T15:01:06;37.00;56.20
2100;DHT22;1055;48.854;9.302;2022-07-22T15:03:31;36.50;55.10
2100;DHT22;1055;48.854;9.302;2022-07-22T15:05:57;37.30;53.80
2100;DHT22;1055;48.854;9.302;2022-07-22T15:08:23;37.50;53.10
2100;DHT22;1055;48.854;9.302;2022-07-22T15:10:49;36.80;52.50
2100;DHT22;1055;48.854;9.302;2022-07-22T15:13:16;37.30;53.50
2100;DHT22;1055;48.854;9.302;2022-07-22T15:15:42;37.10;53.30
2100;DHT22;1055;48.854;9.302;2022-07-22T15:18:08;36.70;54.30
2100;DHT22;1055;48.854;9.302;2022-07-22T15:20:34;37.40;53.80
2100;DHT22;1055;48.854;9.302;2022-07-22T15:23:02;37.70;52.40
2100;DHT22;1055;48.854;9.302;2022-07-22T15:25:28;37.90;53.30
2100;DHT22;1055;48.854;9.302;2022-07-22T15:27:54;37.00;51.40
2100;DHT22;1055;48.854;9.302;2022-07-22T15:30:20;36.80;52.70
2100;DHT22;1055;48.854;9.302;2022-07-22T15:32:47;37.30;52.80
2100;DHT22;1055;48.854;9.302;2022-07-22T15:35:13;37.10;51.80
2100;DHT22;1055;48.854;9.302;2022-07-22T15:37:38;37.30;52.60
2100;DHT22;1055;48.854;9.302;2022-07-22T15:40:08;37.00;52.80
2100;DHT22;1055;48.854;9.302;2022-07-22T15:42:35;36.50;53.50
2100;DHT22;1055;48.854;9.302;2022-07-22T15:45:02;36.40;52.90
2100;DHT22;1055;48.854;9.302;2022-07-22T15:47:28;37.10;52.60
2100;DHT22;1055;48.854;9.302;2022-07-22T15:49:53;37.80;52.00
2100;DHT22;1055;48.854;9.302;2022-07-22T15:52:19;38.40;52.10
2100;DHT22;1055;48.854;9.302;2022-07-22T15:54:45;37.70;50.90
2100;DHT22;1055;48.854;9.302;2022-07-22T15:57:11;37.30;52.20
2100;DHT22;1055;48.854;9.302;2022-07-22T15:59:55;36.70;52.40
2100;DHT22;1055;48.854;9.302;2022-07-22T16:02:21;37.10;53.30
2100;DHT22;1055;48.854;9.302;2022-07-22T16:04:49;37.50;52.50
2100;DHT22;1055;48.854;9.302;2022-07-22T16:07:15;36.60;52.00
2100;DHT22;1055;48.854;9.302;2022-07-22T16:09:40;37.40;51.50
2100;DHT22;1055;48.854;9.302;2022-07-22T16:12:06;37.50;52.00
2100;DHT22;1055;48.854;9.302;2022-07-22T16:14:32;37.20;51.70
2100;DHT22;1055;48.854;9.302;2022-07-22T16:16:57;37.80;50.60
2100;DHT22;1055;48.854;9.302;2022-07-22T16:19:23;36.90;51.40
2100;DHT22;1055;48.854;9.302;2022-07-22T16:21:48;36.80;52.60
2100;DHT22;1055;48.854;9.302;2022-07-22T16:24:14;36.50;51.60
2100;DHT22;1055;48.854;9.302;2022-07-22T16:26:40;37.60;51.30
2100;DHT22;1055;48.854;9.302;2022-07-22T16:29:06;37.50;50.50
2100;DHT22;1055;48.854;9.302;2022-07-22T16:31:31;36.90;51.30